Map

Track Data

SID SEASON NUMBER BASIN SUBBASIN NAME ISO_TIME NATURE LAT LON WMO_WIND WMO_PRES WMO_AGENCY TRACK_TYPE DIST2LAND LANDFALL IFLAG USA_AGENCY USA_ATCF_ID USA_LAT USA_LON USA_RECORD USA_STATUS USA_WIND USA_PRES USA_SSHS USA_R34_NE USA_R34_SE USA_R34_SW USA_R34_NW USA_R50_NE USA_R50_SE USA_R50_SW USA_R50_NW USA_R64_NE USA_R64_SE USA_R64_SW USA_R64_NW USA_POCI USA_ROCI USA_RMW USA_EYE TOKYO_LAT TOKYO_LON TOKYO_GRADE TOKYO_WIND TOKYO_PRES TOKYO_R50_DIR TOKYO_R50_LONG TOKYO_R50_SHORT TOKYO_R30_DIR TOKYO_R30_LONG TOKYO_R30_SHORT TOKYO_LAND CMA_LAT CMA_LON CMA_CAT CMA_WIND CMA_PRES HKO_LAT HKO_LON HKO_CAT HKO_WIND HKO_PRES NEWDELHI_LAT NEWDELHI_LON NEWDELHI_GRADE NEWDELHI_WIND NEWDELHI_PRES NEWDELHI_CI NEWDELHI_DP NEWDELHI_POCI REUNION_LAT REUNION_LON REUNION_TYPE REUNION_WIND REUNION_PRES REUNION_TNUM REUNION_CI REUNION_RMW REUNION_R34_NE REUNION_R34_SE REUNION_R34_SW REUNION_R34_NW REUNION_R50_NE REUNION_R50_SE REUNION_R50_SW REUNION_R50_NW REUNION_R64_NE REUNION_R64_SE REUNION_R64_SW REUNION_R64_NW BOM_LAT BOM_LON BOM_TYPE BOM_WIND BOM_PRES BOM_TNUM BOM_CI BOM_RMW BOM_R34_NE BOM_R34_SE BOM_R34_SW BOM_R34_NW BOM_R50_NE BOM_R50_SE BOM_R50_SW BOM_R50_NW BOM_R64_NE BOM_R64_SE BOM_R64_SW BOM_R64_NW BOM_ROCI BOM_POCI BOM_EYE BOM_POS_METHOD BOM_PRES_METHOD NADI_LAT NADI_LON NADI_CAT NADI_WIND NADI_PRES WELLINGTON_LAT WELLINGTON_LON WELLINGTON_WIND WELLINGTON_PRES DS824_LAT DS824_LON DS824_STAGE DS824_WIND DS824_PRES TD9636_LAT TD9636_LON TD9636_STAGE TD9636_WIND TD9636_PRES TD9635_LAT TD9635_LON TD9635_WIND TD9635_PRES TD9635_ROCI NEUMANN_LAT NEUMANN_LON NEUMANN_CLASS NEUMANN_WIND NEUMANN_PRES MLC_LAT MLC_LON MLC_CLASS MLC_WIND MLC_PRES USA_GUST BOM_GUST BOM_GUST_PER REUNION_GUST REUNION_GUST_PER USA_SEAHGT USA_SEARAD_NE USA_SEARAD_SE USA_SEARAD_SW USA_SEARAD_NW STORM_SPEED STORM_DIR
1930282N13137 1930 49 WP MM NOT_NAMED 1930-10-09 10:00:00 NR 13.1000 136.800 main 1219 1189 __________O___ -1 13.1000 136.800 7 10 283
1930282N13137 1930 49 WP MM NOT_NAMED 1930-10-09 12:00:00 NR 13.1738 136.461 main 1189 1128 __________P___ -1 13.1738 136.461 7 10 283
1930282N13137 1930 49 WP MM NOT_NAMED 1930-10-09 15:00:00 NR 13.2941 135.931 main 1128 1067 __________P___ -1 13.2941 135.931 7 11 284
1930282N13137 1930 49 WP MM NOT_NAMED 1930-10-09 18:00:00 NR 13.4397 135.341 main 1067 1009 __________P___ -1 13.4397 135.341 7 13 285
1930282N13137 1930 49 WP MM NOT_NAMED 1930-10-09 21:00:00 NR 13.6262 134.656 main 1009 979 __________P___ -1 13.6262 134.656 7 14 286
1930282N13137 1930 49 WP MM NOT_NAMED 1930-10-09 22:00:00 NR 13.7000 134.400 main 979 919 __________O___ -1 13.7000 134.400 7 17 287
1930282N13137 1930 49 WP MM NOT_NAMED 1930-10-10 00:00:00 NR 13.8681 133.845 main 919 832 __________P___ -1 13.8681 133.845 7 18 289
1930282N13137 1930 49 WP MM NOT_NAMED 1930-10-10 03:00:00 NR 14.1758 132.935 main 832 749 __________P___ -1 14.1758 132.935 7 19 291
1930282N13137 1930 49 WP MM NOT_NAMED 1930-10-10 06:00:00 NR 14.5580 131.993 main 752 681 __________P___ -1 14.5580 131.993 7 20 295
1930282N13137 1930 49 WP MM NOT_NAMED 1930-10-10 09:00:00 NR 15.0242 131.084 main 681 664 __________P___ -1 15.0242 131.084 7 20 299
1930282N13137 1930 49 WP MM NOT_NAMED 1930-10-10 10:00:00 NR 15.2000 130.800 main 664 634 __________O___ -1 15.2000 130.800 3 20 304
1930282N13137 1930 49 WP MM NOT_NAMED 1930-10-10 12:00:00 NR 15.5919 130.219 main 634 595 __________P___ -1 15.5919 130.219 3 21 308
1930282N13137 1930 49 WP MM NOT_NAMED 1930-10-10 15:00:00 NR 16.2561 129.403 main 600 570 __________P___ -1 16.2561 129.403 3 20 313
1930282N13137 1930 49 WP MM NOT_NAMED 1930-10-10 18:00:00 NR 16.9668 128.711 main 576 568 __________P___ -1 16.9668 128.711 3 18 321
1930282N13137 1930 49 WP MM NOT_NAMED 1930-10-10 21:00:00 NR 17.6738 128.211 main 587 587 __________P___ -1 17.6738 128.211 3 17 328
1930282N13137 1930 49 WP MM NOT_NAMED 1930-10-10 22:00:00 NR 17.9000 128.100 main 596 590 __________O___ -1 17.9000 128.100 4 14 338
1930282N13137 1930 49 WP MM NOT_NAMED 1930-10-11 00:00:00 NR 18.3021 127.949 main 590 590 __________P___ -1 18.3021 127.949 4 12 350
1930282N13137 1930 49 WP MM NOT_NAMED 1930-10-11 03:00:00 NR 18.8811 127.919 main 592 592 __________P___ -1 18.8811 127.919 4 12 6
1930282N13137 1930 49 WP MM NOT_NAMED 1930-10-11 06:00:00 NR 19.4452 128.079 main 620 622 __________P___ -1 19.4452 128.079 4 12 21
1930282N13137 1930 49 WP MM NOT_NAMED 1930-10-11 09:00:00 NR 20.0094 128.378 main 665 665 __________P___ -1 20.0094 128.378 4 13 28
1930282N13137 1930 49 WP MM NOT_NAMED 1930-10-11 10:00:00 NR 20.2000 128.500 main 681 681 __________O___ -1 20.2000 128.500 4 14 32
1930282N13137 1930 49 WP MM NOT_NAMED 1930-10-11 12:00:00 NR 20.5875 128.767 main 724 724 __________P___ -1 20.5875 128.767 4 14 34
1930282N13137 1930 49 WP MM NOT_NAMED 1930-10-11 15:00:00 NR 21.1816 129.215 main 786 786 __________P___ -1 21.1816 129.215 4 15 36
1930282N13137 1930 49 WP MM NOT_NAMED 1930-10-11 18:00:00 NR 21.7865 129.706 main 852 852 __________P___ -1 21.7865 129.706 4 15 38
1930282N13137 1930 49 WP MM NOT_NAMED 1930-10-11 21:00:00 NR 22.3965 130.224 main 878 884 __________P___ -1 22.3965 130.224 4 16 38
1930282N13137 1930 49 WP MM NOT_NAMED 1930-10-11 22:00:00 NR 22.6000 130.400 main 891 __________O___ -1 22.6000 130.400 4 16 38

Digital Typhoon Data and Search

About IBTrACS Database

This database is a web-friendly format of International Best Track Archive for Climate Stewardship (IBTrACS), a global best track data archive curated by NOAA dating back to 1842.

Updated: 2021-12-03